Cossayuna, New York
Current Conditions -  °F | °C
As of 9:53 AM on Thursday 30 Oct 2014 (Local Time) from KGFL Reporting Station
Few Clouds Few Clouds  
Wind Chill: 50°   Ceiling: Unl
Heat Index: 50°   Visibility: 10mi
Dew Point: 37°   Wind: 5mph
Humidity: 61%   Direction: 260°W
Pressure: 29.97"   Gusts: NA
Location:  43.18°N, 73.43°W
Report Text: KGFL 301353Z AUTO 26004KT 10SM FEW035 10/03 A2997 RMK AO2 SLP153 T01000028
Loading
Personal Weather Stations






























Interactive Weather Map
Tropical Storm Tracking
New forecast layout! Learn more

10-Day Weather Forecast

Advertisements
Track Severe Weather on mobile